Latest Weather Observations for Albany Airport

IDW60801

Issued at 5:33 am WST Wednesday 29 March 2017 (issued every 30 minutes, with the page automatically refreshed every 10 minutes)

About weather observations | Map of weather stations | Latest weather observations for WA | Other Formats
Station Details ID: 009999 Name: ALBANY AIRPORT Lat: -34.94 Lon: 117.82 Height: 68.4 m
Data from the previous 72 hours. | See also: Recent months at Albany Airport
Date/Time
WST
Temp
°C
App
Temp
°C
Dew
Point
°C
Rel
Hum
%
Delta-T
°C
Wind Press
QNH
hPa
Press
MSL
hPa
Rain since
9am
mm
Dir  Spd
km/h
Gust
km/h
Spd
kts
Gust
kts
29/05:30am 12.0 8.9 3.7 57 3.7 SSE 9 13 5 7 1025.0 - 0.6
29/05:00am 11.8 8.2 3.1 55 3.8 SSE 11 15 6 8 1024.6 - 0.6
29/04:30am 12.5 8.7 3.8 55 3.9 S 13 19 7 10 1024.3 - 0.6
29/04:00am 12.8 8.9 3.6 53 4.1 S 13 19 7 10 1023.9 - 0.6
29/03:30am 13.0 8.2 2.8 50 4.5 S 17 24 9 13 1023.6 - 0.6
29/03:00am 13.7 8.9 5.6 58 3.8 S 20 28 11 15 1023.3 1023.3 0.6
29/02:30am 13.8 9.7 4.4 53 4.3 SSW 15 24 8 13 1023.3 - 0.6
29/02:00am 12.7 8.1 3.5 53 4.1 SSW 17 22 9 12 1023.3 - 0.6
29/01:30am 13.5 9.0 4.0 52 4.3 SSW 17 24 9 13 1023.2 - 0.6
29/01:00am 12.7 7.9 2.6 50 4.4 SSW 17 26 9 14 1023.2 - 0.6
29/12:30am 13.3 7.4 3.8 52 4.3 SSW 24 32 13 17 1022.9 - 0.6
29/12:00am 13.8 8.3 4.2 52 4.4 SSW 22 30 12 16 1022.7 1022.7 0.6
 
Date/Time
WST
Temp
°C
App
Temp
°C
Dew
Point
°C
Rel
Hum
%
Delta-T
°C
Wind Press
QNH
hPa
Press
MSL
hPa
Rain since
9am
mm
Dir  Spd
km/h
Gust
km/h
Spd
kts
Gust
kts
28/11:30pm 14.1 9.0 4.3 51 4.5 SSW 20 33 11 18 1022.2 - 0.6
28/11:00pm 13.4 8.3 4.2 53 4.2 SSW 20 30 11 16 1022.0 - 0.6
28/10:30pm 14.1 9.3 5.6 56 4.0 SSW 20 28 11 15 1021.8 - 0.6
28/10:00pm 14.0 8.4 5.2 55 4.1 SSW 24 33 13 18 1021.8 - 0.6
28/09:30pm 14.4 8.9 6.0 57 4.0 SSW 24 39 13 21 1021.5 - 0.6
28/09:00pm 14.3 9.6 6.2 58 3.9 SSW 20 30 11 16 1021.4 1021.4 0.6
28/08:30pm 14.6 9.4 7.3 61 3.6 SSW 24 35 13 19 1021.1 - 0.6
28/08:00pm 14.7 9.7 7.9 63 3.4 SSW 24 37 13 20 1020.5 - 0.6
28/07:30pm 15.1 9.9 9.0 67 3.1 SW 26 39 14 21 1020.0 - 0.6
28/07:00pm 15.6 10.7 8.3 62 3.7 SW 24 43 13 23 1019.4 - 0.6
28/06:30pm 15.6 10.7 8.5 62 3.6 SW 24 37 13 20 1019.1 - 0.6
28/06:00pm 15.6 11.6 10.3 70 2.8 SW 22 33 12 18 1018.7 1018.7 0.6
28/05:30pm 15.6 12.1 10.9 73 2.5 WSW 20 28 11 15 1018.2 - 0.6
28/05:08pm 15.4 10.5 11.3 76 2.2 SW 28 44 15 24 1017.9 - 0.6
28/05:00pm 15.4 11.5 12.1 81 1.8 SW 24 39 13 21 1017.9 - 0.6
28/04:43pm 15.2 11.3 13.4 89 1.0 SW 26 39 14 21 1017.5 - 0.6
28/04:38pm 15.6 12.6 13.8 89 1.0 SW 22 30 12 16 1017.4 - 0.6
28/04:30pm 15.6 12.3 14.0 90 0.9 SW 24 33 13 18 1017.3 - 0.6
28/04:27pm 15.6 12.0 14.2 91 0.8 SW 26 37 14 20 1017.3 - 0.6
28/04:08pm 15.5 12.4 14.6 94 0.5 SW 24 37 13 20 1017.0 - 0.6
28/04:07pm 15.6 12.2 14.7 94 0.5 SW 26 39 14 21 1017.0 - 0.6
28/04:00pm 15.7 12.3 14.7 94 0.6 WSW 26 41 14 22 1017.0 - 0.4
28/03:57pm 15.9 12.9 14.9 94 0.6 WSW 24 41 13 22 1016.9 - 0.4
28/03:43pm 16.4 11.1 14.1 86 1.3 W 35 56 19 30 1016.7 - 0.0
28/03:41pm 17.1 11.5 13.4 79 2.1 W 35 56 19 30 1016.6 - 0.0
28/03:30pm 18.5 11.5 11.2 62 4.0 W 39 54 21 29 1016.4 - 0.0
28/03:09pm 18.6 13.2 12.3 67 3.5 WSW 32 50 17 27 1016.3 - 0.0
28/03:00pm 18.9 13.2 11.8 63 3.9 WSW 33 50 18 27 1016.2 1016.2 0.0
28/02:30pm 19.9 13.4 10.3 54 5.2 WSW 35 52 19 28 1015.9 - 0.0
28/02:00pm 19.6 14.1 10.6 56 4.9 WSW 30 44 16 24 1015.8 - 0.0
28/01:30pm 20.3 13.9 10.6 53 5.3 W 35 48 19 26 1015.9 - 0.0
28/12:48pm 19.9 14.0 11.2 57 4.8 WSW 33 56 18 30 1016.0 - 0.0
28/12:30pm 19.4 13.3 11.6 60 4.3 W 35 52 19 28 1016.0 - 0.0
28/12:00pm 18.9 14.2 13.1 69 3.3 W 30 41 16 22 1016.3 1016.3 0.0
28/11:30am 17.5 12.3 13.4 77 2.3 W 33 52 18 28 1016.6 - 0.0
28/11:00am 18.5 12.3 12.6 68 3.3 WSW 37 57 20 31 1016.7 - 0.0
28/10:30am 18.6 13.9 10.8 60 4.2 WSW 26 35 14 19 1017.0 - 0.0
28/10:00am 18.6 14.6 11.7 64 3.8 W 24 37 13 20 1017.0 - 0.0
28/09:30am 17.8 14.3 12.2 70 3.1 W 22 33 12 18 1016.8 - 0.0
28/09:00am 17.4 13.8 11.9 70 3.0 W 22 33 12 18 1016.8 1016.8 0.0
28/08:30am 16.7 14.2 13.5 81 1.8 W 19 26 10 14 1016.8 - 0.0
28/08:00am 16.1 13.6 13.4 84 1.5 W 19 24 10 13 1016.7 - 0.0
28/07:30am 15.5 13.8 13.5 88 1.1 WNW 15 20 8 11 1016.8 - 0.0
28/07:00am 15.0 13.3 13.6 91 0.8 WNW 15 20 8 11 1016.7 - 0.0
28/06:30am 15.1 13.7 13.3 89 1.0 WNW 13 20 7 11 1016.5 - 0.0
28/06:00am 15.1 13.2 13.1 88 1.1 WNW 15 19 8 10 1016.7 1016.7 0.0
28/05:30am 14.8 12.6 13.4 91 0.8 WNW 17 24 9 13 1016.6 - 0.0
28/05:00am 14.9 13.0 13.1 89 1.0 WNW 15 20 8 11 1016.6 - 0.0
28/04:40am 14.9 13.1 13.3 90 0.9 WNW 15 19 8 10 1016.6 - 0.0
28/04:30am 14.8 12.6 13.4 91 0.8 NW 17 20 9 11 1016.5 - 0.0
28/04:15am 14.8 12.3 13.4 91 0.8 NW 19 26 10 14 1016.6 - 0.0
28/04:00am 15.1 12.3 13.1 88 1.1 NW 20 30 11 16 1016.4 - 0.0
28/03:30am 15.2 12.8 12.8 85 1.3 NW 17 24 9 13 1016.3 - 0.0
28/03:00am 15.2 12.5 12.8 85 1.3 WNW 19 24 10 13 1016.6 1016.6 0.0
28/02:30am 15.1 12.8 12.9 87 1.2 NW 17 20 9 11 1016.8 - 0.0
28/02:00am 15.3 12.3 12.6 84 1.5 NW 20 30 11 16 1016.8 - 0.0
28/01:30am 15.5 13.3 12.2 81 1.8 WNW 15 20 8 11 1016.9 - 0.0
28/01:00am 15.6 13.0 12.1 80 1.9 WNW 17 22 9 12 1017.2 - 0.0
28/12:30am 15.8 12.8 11.9 77 2.1 WNW 19 24 10 13 1017.2 - 0.0
28/12:00am 16.0 12.9 11.6 75 2.4 WNW 19 26 10 14 1017.5 1017.5 0.0
 
Date/Time
WST
Temp
°C
App
Temp
°C
Dew
Point
°C
Rel
Hum
%
Delta-T
°C
Wind Press
QNH
hPa
Press
MSL
hPa
Rain since
9am
mm
Dir  Spd
km/h
Gust
km/h
Spd
kts
Gust
kts
27/11:30pm 15.9 13.2 11.7 76 2.3 WNW 17 24 9 13 1017.8 - 0.0
27/11:00pm 16.0 12.6 11.4 74 2.5 WNW 20 30 11 16 1017.8 - 0.0
27/10:30pm 16.0 13.2 11.2 73 2.6 WNW 17 26 9 14 1018.1 - 0.0
27/10:00pm 16.0 13.5 10.9 72 2.7 WNW 15 20 8 11 1018.4 - 0.0
27/09:30pm 16.0 13.4 10.7 71 2.8 WNW 15 20 8 11 1018.5 - 0.0
27/09:00pm 16.1 13.5 10.6 70 2.9 WNW 15 20 8 11 1018.6 1018.6 0.0
27/08:30pm 16.3 12.8 10.2 67 3.2 WNW 19 22 10 12 1018.7 - 0.0
27/08:00pm 16.3 13.2 10.2 67 3.2 WNW 17 24 9 13 1018.8 - 0.0
27/07:30pm 16.4 12.6 9.9 65 3.4 WNW 20 26 11 14 1018.8 - 0.0
27/07:00pm 16.2 12.7 10.1 67 3.2 WNW 19 24 10 13 1018.8 - 0.0
27/06:30pm 16.3 12.7 9.8 65 3.4 W 19 28 10 15 1018.6 - 0.0
27/06:00pm 16.5 12.9 9.8 64 3.5 W 19 26 10 14 1018.6 1018.6 0.0
27/05:30pm 17.5 13.2 9.5 59 4.2 W 22 30 12 16 1018.7 - 0.0
27/05:00pm 17.9 14.2 10.2 60 4.1 W 20 30 11 16 1018.7 - 0.0
27/04:30pm 18.3 14.5 9.8 57 4.5 W 20 26 11 14 1018.7 - 0.0
27/04:00pm 18.6 14.8 9.7 56 4.7 W 20 30 11 16 1018.8 - 0.0
27/03:30pm 18.9 14.6 9.4 54 5.0 W 22 28 12 15 1018.8 - 0.0
27/03:00pm 19.7 15.0 9.3 51 5.5 W 24 35 13 19 1018.7 1018.7 0.0
27/02:30pm 19.0 15.5 10.9 59 4.4 W 20 28 11 15 1018.9 - 0.0
27/02:00pm 19.2 15.6 9.8 54 5.0 W 19 30 10 16 1019.0 - 0.0
27/01:30pm 19.0 14.4 9.6 54 5.0 WNW 24 30 13 16 1019.4 - 0.0
27/01:00pm 18.7 15.0 9.4 54 4.9 W 19 24 10 13 1019.8 - 0.0
27/12:30pm 18.7 14.7 8.9 53 5.1 W 20 28 11 15 1020.1 - 0.0
27/12:00pm 18.5 14.0 8.7 53 5.1 W 22 32 12 17 1020.5 1020.5 0.0
27/11:30am 18.0 13.4 8.2 52 5.0 W 22 32 12 17 1021.0 - 0.0
27/11:00am 17.6 13.3 8.0 53 4.9 W 20 28 11 15 1021.4 - 0.0
27/10:30am 17.7 12.8 8.6 55 4.7 WNW 24 35 13 19 1021.5 - 0.0
27/10:00am 16.8 12.0 8.8 59 4.1 WNW 24 32 13 17 1021.7 - 0.0
27/09:30am 16.2 12.6 9.9 66 3.3 WNW 19 26 10 14 1021.6 - 0.0
27/09:00am 15.8 11.9 9.6 66 3.2 WNW 20 26 11 14 1021.3 1021.3 3.6
27/08:30am 14.7 11.5 10.1 74 2.4 NW 17 20 9 11 1021.0 - 3.6
27/08:00am 13.8 10.3 10.1 78 1.9 NW 19 20 10 11 1020.9 - 3.6
27/07:30am 12.0 8.7 9.6 85 1.2 WNW 17 20 9 11 1020.6 - 3.6
27/07:00am 10.3 7.6 8.9 91 0.7 NW 13 17 7 9 1020.1 - 3.6
27/06:30am 9.4 6.6 8.6 95 0.4 NW 13 15 7 8 1019.9 - 3.6
27/06:00am 8.8 6.3 8.2 96 0.3 NW 11 13 6 7 1019.6 1019.6 3.6
27/05:30am 8.5 5.5 7.9 96 0.3 NW 13 15 7 8 1019.4 - 3.6
27/05:00am 9.3 6.5 8.5 95 0.4 NW 13 15 7 8 1019.3 - 3.6
27/04:30am 10.3 7.6 8.9 91 0.7 WNW 13 15 7 8 1019.0 - 3.6
27/04:00am 10.6 7.9 9.0 90 0.8 NW 13 15 7 8 1019.0 - 3.6
27/03:30am 10.4 7.7 9.0 91 0.7 WNW 13 15 7 8 1019.1 - 3.6
27/03:00am 11.0 8.9 9.6 91 0.7 WNW 11 13 6 7 1019.0 1019.0 3.6
27/02:30am 11.5 8.9 9.5 87 1.0 WNW 13 15 7 8 1019.0 - 3.6
27/02:00am 11.4 8.4 9.4 87 1.0 WNW 15 19 8 10 1019.1 - 3.6
27/01:30am 10.7 8.0 8.9 89 0.9 WNW 13 17 7 9 1019.2 - 3.6
27/01:00am 11.5 8.2 9.5 87 1.0 WNW 17 22 9 12 1019.2 - 3.6
27/12:30am 11.3 8.4 9.5 89 0.9 WNW 15 17 8 9 1019.0 - 3.6
27/12:00am 11.0 8.0 9.2 89 0.9 NW 15 17 8 9 1018.6 1018.6 3.6
 
Date/Time
WST
Temp
°C
App
Temp
°C
Dew
Point
°C
Rel
Hum
%
Delta-T
°C
Wind Press
QNH
hPa
Press
MSL
hPa
Rain since
9am
mm
Dir  Spd
km/h
Gust
km/h
Spd
kts
Gust
kts
26/11:30pm 12.3 9.0 9.5 83 1.4 WNW 17 24 9 13 1018.4 - 3.6
26/11:00pm 12.2 10.2 8.8 80 1.7 W 9 13 5 7 1018.5 - 3.6
26/10:30pm 11.3 8.5 8.5 83 1.4 NNW 13 15 7 8 1018.1 - 3.6
26/10:00pm 11.8 8.8 7.7 76 2.0 NW 13 15 7 8 1017.8 - 3.6
26/09:30pm 13.9 9.6 7.1 63 3.3 W 19 26 10 14 1017.7 - 3.6
26/09:00pm 14.2 9.9 7.7 65 3.2 W 20 28 11 15 1017.7 1017.7 3.6
26/08:30pm 14.3 10.2 7.9 65 3.2 W 19 28 10 15 1017.3 - 3.6
26/08:00pm 14.1 9.9 7.6 65 3.2 W 19 26 10 14 1017.0 - 3.6
26/07:30pm 14.4 9.5 6.8 60 3.7 W 22 32 12 17 1016.6 - 3.6
26/07:00pm 14.5 9.3 7.2 61 3.6 W 24 33 13 18 1016.1 - 3.6
26/06:30pm 14.9 8.9 7.2 60 3.8 W 28 39 15 21 1015.5 - 3.6
26/06:00pm 14.9 9.3 7.2 60 3.8 W 26 33 14 18 1014.6 1014.6 3.6
26/05:42pm 15.0 8.6 6.8 58 4.0 W 30 48 16 26 1014.5 - 3.6
26/05:30pm 15.4 8.0 6.6 55 4.3 W 35 44 19 24 1014.2 - 3.6
26/05:00pm 16.0 9.3 8.1 59 4.0 W 33 56 18 30 1013.6 - 3.6
26/04:45pm 15.5 9.8 8.2 62 3.7 WSW 28 46 15 25 1013.3 - 3.6
26/04:30pm 15.1 10.0 9.3 68 3.0 W 26 35 14 19 1013.2 - 3.6
26/04:11pm 14.9 10.5 10.5 75 2.3 W 24 39 13 21 1013.0 - 3.6
26/04:00pm 14.4 8.5 11.0 80 1.8 W 33 56 18 30 1012.8 - 3.6
26/03:30pm 16.4 8.5 7.7 56 4.4 W 39 59 21 32 1012.0 - 3.6
26/03:00pm 15.5 8.7 9.1 65 3.3 WSW 35 54 19 29 1011.7 1011.6 3.6
26/02:50pm 16.3 10.0 9.6 64 3.5 WSW 33 56 18 30 1011.4 - 3.6
26/02:38pm 15.7 9.8 10.6 71 2.7 W 32 44 17 24 1011.3 - 3.6
26/02:30pm 14.8 8.3 10.4 75 2.3 WSW 35 48 19 26 1011.3 - 3.6
26/02:19pm 14.5 7.8 10.9 79 1.9 WSW 37 65 20 35 1011.0 - 3.4
26/02:15pm 16.3 10.1 9.4 63 3.6 W 32 50 17 27 1010.6 - 3.2
26/02:00pm 15.2 10.4 11.5 78 2.0 W 28 41 15 22 1010.7 - 3.2
26/01:57pm 14.8 10.0 11.5 80 1.8 W 28 41 15 22 1010.7 - 3.2
26/01:36pm 13.3 4.7 10.4 82 1.5 W 46 80 25 43 1010.7 - 2.6
26/01:35pm 14.8 6.6 10.4 75 2.3 W 44 80 24 43 1010.4 - 2.2
26/01:32pm 16.2 8.4 9.9 66 3.3 W 41 59 22 32 1010.2 - 2.2
26/01:30pm 16.4 9.1 10.2 66 3.3 W 39 54 21 29 1010.1 - 2.2
26/01:20pm 15.7 9.3 10.8 72 2.6 W 35 54 19 29 1010.2 - 2.2
26/01:17pm 15.4 9.1 11.1 75 2.3 W 35 52 19 28 1010.2 - 2.2
26/01:00pm 13.6 7.7 11.0 84 1.4 WSW 33 54 18 29 1010.6 - 2.0
26/12:37pm 14.1 7.9 11.3 83 1.5 W 35 54 19 29 1010.3 - 1.8
26/12:30pm 15.4 9.3 11.9 79 1.9 SW 35 44 19 24 1010.1 - 1.6
26/12:00pm 15.1 8.8 11.2 77 2.1 WNW 35 54 19 29 1009.3 1009.3 1.6
26/11:30am 15.7 9.5 10.0 69 3.0 W 33 52 18 28 1009.2 - 1.4
26/11:28am 16.5 10.3 9.4 63 3.7 W 32 52 17 28 1009.1 - 1.4
26/11:00am 15.7 12.0 12.8 83 1.6 W 24 39 13 21 1008.9 - 1.4
26/10:56am 15.1 10.9 12.4 84 1.5 W 26 39 14 21 1008.8 - 1.4
26/10:30am 13.4 8.2 11.5 88 1.0 WSW 30 48 16 26 1009.1 - 1.0
26/10:23am 13.6 8.3 11.2 85 1.3 W 30 48 16 26 1008.9 - 0.8
26/10:21am 13.6 8.2 11.0 84 1.4 W 30 46 16 25 1008.9 - 0.8
26/10:00am 14.9 8.2 9.7 71 2.7 W 35 57 19 31 1008.1 - 0.2
26/09:56am 15.0 7.5 9.4 69 2.9 W 39 57 21 31 1008.1 - 0.2
26/09:53am 15.2 6.3 9.2 67 3.1 W 46 57 25 31 1008.0 - 0.2
26/09:42am 17.0 10.6 8.7 58 4.3 WNW 32 52 17 28 1007.6 - 0.0
26/09:30am 17.5 11.3 9.3 58 4.3 WNW 32 46 17 25 1007.6 - 0.0
26/09:00am 16.5 10.7 9.6 63 3.6 W 30 43 16 23 1007.3 1007.3 3.2
26/08:30am 15.7 11.0 10.6 71 2.7 W 26 39 14 21 1007.1 - 3.2
26/08:00am 14.9 11.0 12.0 83 1.6 WNW 24 33 13 18 1006.7 - 3.2
26/07:30am 13.6 10.3 11.5 87 1.1 WNW 20 26 11 14 1006.2 - 3.2
26/07:00am 13.4 10.2 11.9 91 0.8 WNW 20 30 11 16 1005.6 - 3.2
26/06:30am 13.1 9.9 12.0 93 0.6 WNW 20 32 11 17 1005.6 - 3.2
26/06:00am 13.1 9.9 11.8 92 0.7 WNW 20 30 11 16 1005.1 1005.1 2.8
26/05:46am 13.2 8.9 11.9 92 0.7 W 26 39 14 21 1005.1 - 2.8

Other Formats:

Comma delimited format used in spreadsheet applications
http://www.bom.gov.au/fwo/IDW60801/IDW60801.94802.axf

JavaScript Object Notation format (JSON) in row-major order
http://www.bom.gov.au/fwo/IDW60801/IDW60801.94802.json